Impacts TAF Board INFO
FOR SITUATIONAL AWARENESS. NOT TO BE USED FOR FLIGHT PLANNING PURPOSES.
IDs:

KJFK - New York/Kennedy Int, NY, US

Issued at 1535 UTC 23 Jan 2018
Updated at 1542 UTC 23 Jan 2018
Potential Impact None Slight Moderate High
Time1533Z 23/16Z 23/17Z 23/18Z 23/19Z 23/20Z 23/21Z 23/22Z 23/23Z 24/00Z 24/01Z 24/02Z 24/03Z 24/04Z>>
Type OBS PRVL PRVL PRVL PRVL PRVL PRVL PRVL PRVL PRVL PRVL PRVL PRVL PRVL
VIS 2 2 2 2 4 4 >6 >6 >6 >6 >6 >6 >6 >6
CIG 15 7 7 7 15 15 35 35 -- -- -- -- -- --
Cover BKN OVC OVC OVC BKN BKN BKN BKN SCT SCT SCT SCT SCT SCT
FltCat IFR IFR IFR IFR MVFR MVFR VFR VFR VFR VFR VFR VFR VFR VFR
WX TSRA BR SHRA BR SHRA BR SHRA BR -SHRA BR -SHRA BR VCSH VCSH -- -- -- -- -- --
WDir 170 180 180 180 200 200 220 220 260 260 260 260 260 260
WSpd 19 18 18 18 16 16 14 14 14 14 14 14 14 14
WGst 28 26 26 26 24 24 -- -- 22 22 22 22 22 22

Raw TAF
KJFK 231535Z 2316/2418 18018G26KT 2SM SHRA BR BKN007 OVC012 WS020/20055KT
  FM231900 20016G24KT 4SM -SHRA BR SCT007 BKN015 WS020/21050KT
  FM232100 22014KT P6SM VCSH SCT015 BKN035
  FM232300 26014G22KT P6SM SCT035
  FM241400 29017G27KT P6SM SCT035


Raw METAR
KJFK 231533Z 17019G28KT 2SM R04R/3500VP6000FT TSRA BR SCT004 BKN015CB BKN110 BKN220 09/09 A2968 RMK AO2 PK WND 18028/1525 SFC VIS 3 TSB33 PRESFR OCNL LTGIC SE-S TS SE-S MOV NE P0009 T00940094 $
KJFK 231526Z 18022G28KT 2SM R04R/1800VP6000FT RA BR BKN004 BKN012 OVC095 09/09 A2969 RMK AO2 PK WND 18028/1525 SFC VIS 2 1/2 PRESFR P0006 T00940094 $
KJFK 231451Z 19017KT 1/8SM R04R/2200V3000FT -RA BR SCT000 OVC002 08/08 A2974 RMK AO2 SFC VIS 1 1/4 SLP070 BR SCT000 P0005 60008 T00830083 56023 $
KJFK 231420Z 18015KT 1/8SM R04R/1800V2400FT -RA FG VV002 08/08 A2975 RMK AO2 SFC VIS 1/2 P0002 T00830083 $
KJFK 231415Z 18014KT 1/8SM R04R/1800V2200FT -RA FG VV002 08/08 A2975 RMK AO2 SFC VIS 1/2 P0001 T00830083 $
KJFK 231400Z 18014KT 1/8SM R04R/1600V2400FT -RA FG VV002 08/08 A2975 RMK AO2 SFC VIS 1/2 P0000 T00780078 $
KJFK 231351Z 18012KT 1/8SM R04R/1400V2200FT -RA FG VV002 07/07 A2976 RMK AO2 SFC VIS 1/4 RAB08 SLP076 P0001 T00720072 $
KJFK 231326Z 18012KT 1/8SM R04R/1400V2200FT -RA FG VV002 07/07 A2977 RMK AO2 SFC VIS 1/4 RAB08 P0000 T00720072 $
KJFK 231308Z 18013KT 1/8SM R04R/3500VP6000FT -RA BR VV002 08/08 A2978 RMK AO2 SFC VIS 3/4 RAB08 P0000 T00780078 $
KJFK 231251Z 18017KT 1/2SM R04R/P6000FT BR BKN003 OVC019 08/08 A2978 RMK AO2 SFC VIS 5 RAE25B41E50 SLP086 CIG 002V004 P0002 T00830083 $

METAR Board
Radar Display
Forecast Discussion

FOR SITUATIONAL AWARENESS. NOT TO BE USED FOR FLIGHT PLANNING PURPOSES.